sensor_id;sensor_type;location;lat;lon;timestamp;P1;durP1;ratioP1;P2;durP2;ratioP2
12774;SDS011;6451;42.630;23.382;2023-04-25T00:02:12;5.87;;;4.90;;
12774;SDS011;6451;42.630;23.382;2023-04-25T00:04:42;5.47;;;4.97;;
12774;SDS011;6451;42.630;23.382;2023-04-25T00:07:09;5.50;;;4.90;;
12774;SDS011;6451;42.630;23.382;2023-04-25T00:09:36;7.03;;;5.30;;
12774;SDS011;6451;42.630;23.382;2023-04-25T00:12:05;5.67;;;5.17;;
12774;SDS011;6451;42.630;23.382;2023-04-25T00:14:32;5.50;;;5.00;;
12774;SDS011;6451;42.630;23.382;2023-04-25T00:17:00;6.83;;;5.50;;
12774;SDS011;6451;42.630;23.382;2023-04-25T00:19:27;7.87;;;5.20;;
12774;SDS011;6451;42.630;23.382;2023-04-25T00:21:55;5.50;;;4.97;;
12774;SDS011;6451;42.630;23.382;2023-04-25T00:24:22;6.00;;;5.17;;
12774;SDS011;6451;42.630;23.382;2023-04-25T00:26:49;5.60;;;5.10;;
12774;SDS011;6451;42.630;23.382;2023-04-25T00:29:17;7.63;;;5.47;;
12774;SDS011;6451;42.630;23.382;2023-04-25T00:31:44;6.70;;;6.00;;
12774;SDS011;6451;42.630;23.382;2023-04-25T00:34:11;7.13;;;5.93;;
12774;SDS011;6451;42.630;23.382;2023-04-25T00:36:38;7.10;;;6.40;;
12774;SDS011;6451;42.630;23.382;2023-04-25T00:39:05;7.40;;;6.70;;
12774;SDS011;6451;42.630;23.382;2023-04-25T00:41:32;9.27;;;8.13;;
12774;SDS011;6451;42.630;23.382;2023-04-25T00:43:59;9.50;;;8.50;;
12774;SDS011;6451;42.630;23.382;2023-04-25T00:46:29;9.47;;;8.57;;
12774;SDS011;6451;42.630;23.382;2023-04-25T00:48:58;9.57;;;8.23;;
12774;SDS011;6451;42.630;23.382;2023-04-25T00:51:25;8.90;;;8.00;;
12774;SDS011;6451;42.630;23.382;2023-04-25T00:53:52;9.17;;;8.23;;
12774;SDS011;6451;42.630;23.382;2023-04-25T00:56:20;9.03;;;8.23;;
12774;SDS011;6451;42.630;23.382;2023-04-25T00:58:47;9.03;;;8.13;;
12774;SDS011;6451;42.630;23.382;2023-04-25T01:01:17;8.70;;;7.90;;
12774;SDS011;6451;42.630;23.382;2023-04-25T01:03:46;8.90;;;7.80;;
12774;SDS011;6451;42.630;23.382;2023-04-25T01:06:15;9.17;;;8.27;;
12774;SDS011;6451;42.630;23.382;2023-04-25T01:08:44;8.40;;;7.60;;
12774;SDS011;6451;42.630;23.382;2023-04-25T01:11:11;8.03;;;7.20;;
12774;SDS011;6451;42.630;23.382;2023-04-25T01:13:38;7.77;;;6.97;;
12774;SDS011;6451;42.630;23.382;2023-04-25T01:16:05;7.43;;;6.73;;
12774;SDS011;6451;42.630;23.382;2023-04-25T01:18:32;7.63;;;6.93;;
12774;SDS011;6451;42.630;23.382;2023-04-25T01:21:03;8.80;;;7.50;;
12774;SDS011;6451;42.630;23.382;2023-04-25T01:23:34;8.63;;;7.60;;
12774;SDS011;6451;42.630;23.382;2023-04-25T01:26:02;9.03;;;8.10;;
12774;SDS011;6451;42.630;23.382;2023-04-25T01:28:29;8.80;;;7.90;;
12774;SDS011;6451;42.630;23.382;2023-04-25T01:30:56;7.10;;;6.40;;
12774;SDS011;6451;42.630;23.382;2023-04-25T01:33:23;7.03;;;6.03;;
12774;SDS011;6451;42.630;23.382;2023-04-25T01:35:51;6.03;;;5.43;;
12774;SDS011;6451;42.630;23.382;2023-04-25T01:38:19;5.33;;;4.83;;
12774;SDS011;6451;42.630;23.382;2023-04-25T01:40:46;4.93;;;4.53;;
12774;SDS011;6451;42.630;23.382;2023-04-25T01:43:17;5.13;;;4.63;;
12774;SDS011;6451;42.630;23.382;2023-04-25T01:45:43;5.50;;;4.67;;
12774;SDS011;6451;42.630;23.382;2023-04-25T01:48:11;5.63;;;5.13;;
12774;SDS011;6451;42.630;23.382;2023-04-25T01:50:40;5.63;;;4.90;;
12774;SDS011;6451;42.630;23.382;2023-04-25T01:53:07;5.80;;;5.27;;
12774;SDS011;6451;42.630;23.382;2023-04-25T01:55:37;6.83;;;5.43;;
12774;SDS011;6451;42.630;23.382;2023-04-25T01:58:04;6.23;;;5.63;;
12774;SDS011;6451;42.630;23.382;2023-04-25T02:00:34;7.33;;;5.60;;
12774;SDS011;6451;42.630;23.382;2023-04-25T02:03:03;6.77;;;5.67;;
12774;SDS011;6451;42.630;23.382;2023-04-25T02:05:33;7.10;;;6.40;;
12774;SDS011;6451;42.630;23.382;2023-04-25T02:08:01;7.80;;;7.10;;
12774;SDS011;6451;42.630;23.382;2023-04-25T02:10:28;7.57;;;6.77;;
12774;SDS011;6451;42.630;23.382;2023-04-25T02:12:56;7.50;;;6.80;;
12774;SDS011;6451;42.630;23.382;2023-04-25T02:15:23;8.13;;;7.43;;
12774;SDS011;6451;42.630;23.382;2023-04-25T02:17:50;9.87;;;7.83;;
12774;SDS011;6451;42.630;23.382;2023-04-25T02:20:19;8.10;;;7.30;;
12774;SDS011;6451;42.630;23.382;2023-04-25T02:22:46;8.07;;;7.37;;
12774;SDS011;6451;42.630;23.382;2023-04-25T02:25:13;7.90;;;7.20;;
12774;SDS011;6451;42.630;23.382;2023-04-25T02:27:41;8.47;;;7.10;;
12774;SDS011;6451;42.630;23.382;2023-04-25T02:30:09;8.30;;;7.50;;
12774;SDS011;6451;42.630;23.382;2023-04-25T02:32:37;8.40;;;7.60;;
12774;SDS011;6451;42.630;23.382;2023-04-25T02:35:04;9.17;;;8.27;;
12774;SDS011;6451;42.630;23.382;2023-04-25T02:37:31;8.57;;;7.77;;
12774;SDS011;6451;42.630;23.382;2023-04-25T02:39:59;8.20;;;7.50;;
12774;SDS011;6451;42.630;23.382;2023-04-25T02:42:26;8.20;;;7.40;;
12774;SDS011;6451;42.630;23.382;2023-04-25T02:44:53;7.90;;;7.17;;
12774;SDS011;6451;42.630;23.382;2023-04-25T02:47:21;7.57;;;6.70;;
12774;SDS011;6451;42.630;23.382;2023-04-25T02:49:48;7.80;;;7.00;;
12774;SDS011;6451;42.630;23.382;2023-04-25T02:52:15;7.47;;;6.77;;
12774;SDS011;6451;42.630;23.382;2023-04-25T02:54:42;7.70;;;6.60;;
12774;SDS011;6451;42.630;23.382;2023-04-25T02:57:09;7.33;;;6.63;;
12774;SDS011;6451;42.630;23.382;2023-04-25T02:59:36;7.27;;;6.57;;
12774;SDS011;6451;42.630;23.382;2023-04-25T03:02:03;7.37;;;6.67;;
12774;SDS011;6451;42.630;23.382;2023-04-25T03:04:31;6.90;;;6.20;;
12774;SDS011;6451;42.630;23.382;2023-04-25T03:06:59;7.53;;;6.30;;
12774;SDS011;6451;42.630;23.382;2023-04-25T03:09:27;7.83;;;7.10;;
12774;SDS011;6451;42.630;23.382;2023-04-25T03:11:54;7.73;;;7.03;;
12774;SDS011;6451;42.630;23.382;2023-04-25T03:14:20;8.77;;;7.90;;
12774;SDS011;6451;42.630;23.382;2023-04-25T03:16:47;8.03;;;7.33;;
12774;SDS011;6451;42.630;23.382;2023-04-25T03:19:14;8.63;;;7.80;;
12774;SDS011;6451;42.630;23.382;2023-04-25T03:21:43;7.93;;;7.13;;
12774;SDS011;6451;42.630;23.382;2023-04-25T03:24:12;8.57;;;7.77;;
12774;SDS011;6451;42.630;23.382;2023-04-25T03:26:38;9.70;;;8.70;;
12774;SDS011;6451;42.630;23.382;2023-04-25T03:29:05;10.00;;;8.10;;
12774;SDS011;6451;42.630;23.382;2023-04-25T03:31:32;9.90;;;8.90;;
12774;SDS011;6451;42.630;23.382;2023-04-25T03:33:59;10.73;;;9.63;;
12774;SDS011;6451;42.630;23.382;2023-04-25T03:36:27;11.07;;;9.97;;
12774;SDS011;6451;42.630;23.382;2023-04-25T03:38:55;11.40;;;10.13;;
12774;SDS011;6451;42.630;23.382;2023-04-25T03:41:22;10.53;;;9.50;;
12774;SDS011;6451;42.630;23.382;2023-04-25T03:43:50;11.83;;;10.67;;
12774;SDS011;6451;42.630;23.382;2023-04-25T03:46:17;11.80;;;10.47;;
12774;SDS011;6451;42.630;23.382;2023-04-25T03:48:44;12.77;;;11.47;;
12774;SDS011;6451;42.630;23.382;2023-04-25T03:51:11;13.57;;;12.17;;
12774;SDS011;6451;42.630;23.382;2023-04-25T03:53:37;12.47;;;11.17;;
12774;SDS011;6451;42.630;23.382;2023-04-25T03:56:07;12.70;;;11.40;;
12774;SDS011;6451;42.630;23.382;2023-04-25T03:58:34;12.20;;;11.00;;
12774;SDS011;6451;42.630;23.382;2023-04-25T04:01:01;12.40;;;11.13;;
12774;SDS011;6451;42.630;23.382;2023-04-25T04:03:32;11.33;;;10.23;;
12774;SDS011;6451;42.630;23.382;2023-04-25T04:05:59;11.40;;;9.97;;
12774;SDS011;6451;42.630;23.382;2023-04-25T04:08:26;13.67;;;12.13;;
12774;SDS011;6451;42.630;23.382;2023-04-25T04:10:53;12.80;;;11.50;;
12774;SDS011;6451;42.630;23.382;2023-04-25T04:13:21;12.80;;;11.50;;
12774;SDS011;6451;42.630;23.382;2023-04-25T04:15:48;12.00;;;10.80;;
12774;SDS011;6451;42.630;23.382;2023-04-25T04:18:15;12.53;;;11.23;;
12774;SDS011;6451;42.630;23.382;2023-04-25T04:20:42;12.57;;;10.90;;
12774;SDS011;6451;42.630;23.382;2023-04-25T04:23:09;13.93;;;11.73;;
12774;SDS011;6451;42.630;23.382;2023-04-25T04:25:36;13.57;;;12.20;;
12774;SDS011;6451;42.630;23.382;2023-04-25T04:28:04;13.43;;;12.10;;
12774;SDS011;6451;42.630;23.382;2023-04-25T04:30:33;14.10;;;12.60;;
12774;SDS011;6451;42.630;23.382;2023-04-25T04:33:01;14.13;;;12.57;;
12774;SDS011;6451;42.630;23.382;2023-04-25T04:35:28;15.17;;;13.67;;
12774;SDS011;6451;42.630;23.382;2023-04-25T04:37:55;15.87;;;14.27;;
12774;SDS011;6451;42.630;23.382;2023-04-25T04:40:22;19.33;;;17.33;;
12774;SDS011;6451;42.630;23.382;2023-04-25T04:42:50;19.67;;;17.63;;
12774;SDS011;6451;42.630;23.382;2023-04-25T04:45:18;19.17;;;17.17;;
12774;SDS011;6451;42.630;23.382;2023-04-25T04:47:49;20.10;;;17.93;;
12774;SDS011;6451;42.630;23.382;2023-04-25T04:50:16;18.47;;;16.57;;
12774;SDS011;6451;42.630;23.382;2023-04-25T04:52:43;19.83;;;17.80;;
12774;SDS011;6451;42.630;23.382;2023-04-25T04:55:10;20.23;;;18.17;;
12774;SDS011;6451;42.630;23.382;2023-04-25T04:57:37;18.17;;;16.37;;
12774;SDS011;6451;42.630;23.382;2023-04-25T05:00:05;17.10;;;15.20;;
12774;SDS011;6451;42.630;23.382;2023-04-25T05:02:36;15.77;;;14.27;;
12774;SDS011;6451;42.630;23.382;2023-04-25T05:05:05;13.93;;;12.17;;
12774;SDS011;6451;42.630;23.382;2023-04-25T05:07:33;12.97;;;11.40;;
12774;SDS011;6451;42.630;23.382;2023-04-25T05:10:00;12.50;;;11.30;;
12774;SDS011;6451;42.630;23.382;2023-04-25T05:12:28;12.10;;;10.80;;
12774;SDS011;6451;42.630;23.382;2023-04-25T05:14:55;12.60;;;11.30;;
12774;SDS011;6451;42.630;23.382;2023-04-25T05:17:23;11.07;;;10.07;;
12774;SDS011;6451;42.630;23.382;2023-04-25T05:19:50;12.20;;;10.80;;
12774;SDS011;6451;42.630;23.382;2023-04-25T05:22:18;12.40;;;10.33;;
12774;SDS011;6451;42.630;23.382;2023-04-25T05:24:45;10.60;;;9.47;;
12774;SDS011;6451;42.630;23.382;2023-04-25T05:27:16;10.87;;;9.77;;
12774;SDS011;6451;42.630;23.382;2023-04-25T05:29:43;9.27;;;8.10;;
12774;SDS011;6451;42.630;23.382;2023-04-25T05:32:10;9.40;;;8.50;;
12774;SDS011;6451;42.630;23.382;2023-04-25T05:34:39;9.83;;;8.93;;
12774;SDS011;6451;42.630;23.382;2023-04-25T05:37:07;9.87;;;8.97;;
12774;SDS011;6451;42.630;23.382;2023-04-25T05:39:35;10.77;;;8.97;;
12774;SDS011;6451;42.630;23.382;2023-04-25T05:42:02;9.70;;;8.70;;
12774;SDS011;6451;42.630;23.382;2023-04-25T05:44:30;9.27;;;8.37;;
12774;SDS011;6451;42.630;23.382;2023-04-25T05:46:57;8.60;;;7.80;;
12774;SDS011;6451;42.630;23.382;2023-04-25T05:49:23;9.67;;;8.73;;
12774;SDS011;6451;42.630;23.382;2023-04-25T05:51:50;8.83;;;8.03;;
12774;SDS011;6451;42.630;23.382;2023-04-25T05:54:17;9.50;;;7.87;;
12774;SDS011;6451;42.630;23.382;2023-04-25T05:56:46;9.70;;;8.80;;
12774;SDS011;6451;42.630;23.382;2023-04-25T05:59:16;9.40;;;8.50;;
12774;SDS011;6451;42.630;23.382;2023-04-25T06:01:43;8.17;;;7.40;;
12774;SDS011;6451;42.630;23.382;2023-04-25T06:04:10;8.20;;;7.40;;
12774;SDS011;6451;42.630;23.382;2023-04-25T06:06:37;9.13;;;8.23;;
12774;SDS011;6451;42.630;23.382;2023-04-25T06:09:04;10.53;;;9.00;;
12774;SDS011;6451;42.630;23.382;2023-04-25T06:11:32;9.63;;;8.63;;
12774;SDS011;6451;42.630;23.382;2023-04-25T06:14:00;11.00;;;9.07;;
12774;SDS011;6451;42.630;23.382;2023-04-25T06:16:27;10.83;;;9.70;;
12774;SDS011;6451;42.630;23.382;2023-04-25T06:18:55;11.90;;;10.70;;
12774;SDS011;6451;42.630;23.382;2023-04-25T06:21:22;11.97;;;10.10;;
12774;SDS011;6451;42.630;23.382;2023-04-25T06:23:49;10.97;;;9.93;;
12774;SDS011;6451;42.630;23.382;2023-04-25T06:26:16;10.80;;;9.70;;
12774;SDS011;6451;42.630;23.382;2023-04-25T06:28:43;12.70;;;10.47;;
12774;SDS011;6451;42.630;23.382;2023-04-25T06:31:12;10.90;;;9.90;;
12774;SDS011;6451;42.630;23.382;2023-04-25T06:33:41;10.67;;;9.67;;
12774;SDS011;6451;42.630;23.382;2023-04-25T06:36:08;11.30;;;10.30;;
12774;SDS011;6451;42.630;23.382;2023-04-25T06:38:34;14.47;;;10.47;;
12774;SDS011;6451;42.630;23.382;2023-04-25T06:41:01;10.90;;;9.67;;
12774;SDS011;6451;42.630;23.382;2023-04-25T06:43:28;10.70;;;9.23;;
12774;SDS011;6451;42.630;23.382;2023-04-25T06:45:58;9.73;;;8.13;;
12774;SDS011;6451;42.630;23.382;2023-04-25T06:48:26;8.27;;;7.47;;
12774;SDS011;6451;42.630;23.382;2023-04-25T06:50:53;8.53;;;6.57;;
12774;SDS011;6451;42.630;23.382;2023-04-25T06:53:22;7.67;;;6.70;;
12774;SDS011;6451;42.630;23.382;2023-04-25T06:55:49;8.27;;;6.50;;
12774;SDS011;6451;42.630;23.382;2023-04-25T06:58:16;7.73;;;6.83;;
12774;SDS011;6451;42.630;23.382;2023-04-25T07:00:43;7.83;;;7.03;;
12774;SDS011;6451;42.630;23.382;2023-04-25T07:03:10;12.00;;;7.63;;
12774;SDS011;6451;42.630;23.382;2023-04-25T07:05:38;9.47;;;7.43;;
12774;SDS011;6451;42.630;23.382;2023-04-25T07:08:05;9.10;;;8.20;;
12774;SDS011;6451;42.630;23.382;2023-04-25T07:10:32;9.30;;;7.53;;
12774;SDS011;6451;42.630;23.382;2023-04-25T07:13:00;9.13;;;7.32;;
12774;SDS011;6451;42.630;23.382;2023-04-25T07:15:26;7.63;;;6.88;;
12774;SDS011;6451;42.630;23.382;2023-04-25T07:17:53;9.02;;;6.97;;
12774;SDS011;6451;42.630;23.382;2023-04-25T07:20:20;9.57;;;6.47;;
12774;SDS011;6451;42.630;23.382;2023-04-25T07:22:50;7.07;;;5.83;;
12774;SDS011;6451;42.630;23.382;2023-04-25T07:25:17;6.93;;;6.03;;
12774;SDS011;6451;42.630;23.382;2023-04-25T07:27:44;7.75;;;6.90;;
12774;SDS011;6451;42.630;23.382;2023-04-25T07:30:11;8.65;;;7.05;;
12774;SDS011;6451;42.630;23.382;2023-04-25T07:32:38;7.93;;;7.13;;
12774;SDS011;6451;42.630;23.382;2023-04-25T07:35:05;7.07;;;6.38;;
12774;SDS011;6451;42.630;23.382;2023-04-25T07:37:33;7.35;;;6.65;;
12774;SDS011;6451;42.630;23.382;2023-04-25T07:40:02;7.10;;;6.40;;
12774;SDS011;6451;42.630;23.382;2023-04-25T07:42:30;7.55;;;6.60;;
12774;SDS011;6451;42.630;23.382;2023-04-25T07:44:57;7.85;;;6.85;;
12774;SDS011;6451;42.630;23.382;2023-04-25T07:47:24;8.77;;;7.13;;
12774;SDS011;6451;42.630;23.382;2023-04-25T07:49:51;6.78;;;6.00;;
12774;SDS011;6451;42.630;23.382;2023-04-25T07:52:18;6.35;;;5.72;;
12774;SDS011;6451;42.630;23.382;2023-04-25T07:54:45;6.47;;;5.50;;
12774;SDS011;6451;42.630;23.382;2023-04-25T07:57:13;5.70;;;5.20;;
12774;SDS011;6451;42.630;23.382;2023-04-25T07:59:42;6.05;;;5.53;;
12774;SDS011;6451;42.630;23.382;2023-04-25T08:02:09;6.30;;;5.80;;
12774;SDS011;6451;42.630;23.382;2023-04-25T08:04:36;7.43;;;5.85;;
12774;SDS011;6451;42.630;23.382;2023-04-25T08:07:02;6.82;;;6.10;;
12774;SDS011;6451;42.630;23.382;2023-04-25T08:09:29;6.53;;;5.78;;
12774;SDS011;6451;42.630;23.382;2023-04-25T08:11:59;7.57;;;6.10;;
12774;SDS011;6451;42.630;23.382;2023-04-25T08:14:28;6.45;;;5.82;;
12774;SDS011;6451;42.630;23.382;2023-04-25T08:17:00;8.40;;;5.47;;
12774;SDS011;6451;42.630;23.382;2023-04-25T08:19:30;6.03;;;5.18;;
12774;SDS011;6451;42.630;23.382;2023-04-25T08:22:06;5.45;;;4.80;;
12774;SDS011;6451;42.630;23.382;2023-04-25T08:24:34;6.45;;;5.40;;
12774;SDS011;6451;42.630;23.382;2023-04-25T08:27:00;13.35;;;5.78;;
12774;SDS011;6451;42.630;23.382;2023-04-25T08:29:29;6.55;;;5.47;;
12774;SDS011;6451;42.630;23.382;2023-04-25T08:31:56;8.77;;;5.65;;
12774;SDS011;6451;42.630;23.382;2023-04-25T08:34:22;6.00;;;5.40;;
12774;SDS011;6451;42.630;23.382;2023-04-25T08:36:50;6.40;;;5.80;;
12774;SDS011;6451;42.630;23.382;2023-04-25T08:39:17;7.00;;;5.13;;
12774;SDS011;6451;42.630;23.382;2023-04-25T08:41:46;5.18;;;4.75;;
12774;SDS011;6451;42.630;23.382;2023-04-25T08:44:12;4.70;;;4.30;;
12774;SDS011;6451;42.630;23.382;2023-04-25T08:46:42;5.25;;;3.90;;
12774;SDS011;6451;42.630;23.382;2023-04-25T08:49:14;4.75;;;3.60;;
12774;SDS011;6451;42.630;23.382;2023-04-25T08:51:44;4.70;;;3.63;;
12774;SDS011;6451;42.630;23.382;2023-04-25T08:54:13;3.50;;;3.20;;
12774;SDS011;6451;42.630;23.382;2023-04-25T08:56:44;3.80;;;3.50;;
12774;SDS011;6451;42.630;23.382;2023-04-25T08:59:14;5.80;;;3.83;;
12774;SDS011;6451;42.630;23.382;2023-04-25T09:01:43;7.72;;;3.30;;
12774;SDS011;6451;42.630;23.382;2023-04-25T09:04:11;4.07;;;3.30;;
12774;SDS011;6451;42.630;23.382;2023-04-25T09:06:38;6.03;;;3.70;;
12774;SDS011;6451;42.630;23.382;2023-04-25T09:09:06;3.90;;;3.28;;
12774;SDS011;6451;42.630;23.382;2023-04-25T09:11:34;3.38;;;2.95;;
12774;SDS011;6451;42.630;23.382;2023-04-25T09:14:15;7.57;;;6.82;;
12774;SDS011;6451;42.630;23.382;2023-04-25T09:16:59;6.40;;;5.35;;
12774;SDS011;6451;42.630;23.382;2023-04-25T09:19:28;5.68;;;5.18;;
12774;SDS011;6451;42.630;23.382;2023-04-25T09:21:56;6.55;;;5.95;;
12774;SDS011;6451;42.630;23.382;2023-04-25T09:24:32;5.93;;;4.90;;
12774;SDS011;6451;42.630;23.382;2023-04-25T09:26:59;6.40;;;5.10;;
12774;SDS011;6451;42.630;23.382;2023-04-25T09:29:29;5.75;;;4.57;;
12774;SDS011;6451;42.630;23.382;2023-04-25T09:32:17;5.50;;;4.60;;
12774;SDS011;6451;42.630;23.382;2023-04-25T09:34:45;7.13;;;4.35;;
12774;SDS011;6451;42.630;23.382;2023-04-25T09:37:18;4.88;;;4.28;;
12774;SDS011;6451;42.630;23.382;2023-04-25T09:39:47;5.03;;;4.53;;
12774;SDS011;6451;42.630;23.382;2023-04-25T09:42:15;8.82;;;4.57;;
12774;SDS011;6451;42.630;23.382;2023-04-25T09:44:43;6.90;;;4.57;;
12774;SDS011;6451;42.630;23.382;2023-04-25T09:47:10;6.78;;;4.57;;
12774;SDS011;6451;42.630;23.382;2023-04-25T09:49:40;6.60;;;4.70;;
12774;SDS011;6451;42.630;23.382;2023-04-25T09:52:08;7.85;;;5.18;;
12774;SDS011;6451;42.630;23.382;2023-04-25T09:54:39;7.00;;;4.88;;
12774;SDS011;6451;42.630;23.382;2023-04-25T09:57:09;5.18;;;4.53;;
12774;SDS011;6451;42.630;23.382;2023-04-25T09:59:38;5.82;;;4.60;;
12774;SDS011;6451;42.630;23.382;2023-04-25T10:02:09;6.85;;;3.83;;
12774;SDS011;6451;42.630;23.382;2023-04-25T10:04:36;4.50;;;4.10;;
12774;SDS011;6451;42.630;23.382;2023-04-25T10:07:06;4.93;;;3.90;;
12774;SDS011;6451;42.630;23.382;2023-04-25T10:09:36;5.38;;;3.90;;
12774;SDS011;6451;42.630;23.382;2023-04-25T10:12:04;4.70;;;3.63;;
12774;SDS011;6451;42.630;23.382;2023-04-25T10:14:32;5.05;;;3.50;;
12774;SDS011;6451;42.630;23.382;2023-04-25T10:16:59;4.45;;;3.40;;
12774;SDS011;6451;42.630;23.382;2023-04-25T10:19:27;4.28;;;3.28;;
12774;SDS011;6451;42.630;23.382;2023-04-25T10:24:31;6.15;;;4.28;;
12774;SDS011;6451;42.630;23.382;2023-04-25T10:26:58;5.10;;;2.10;;
12774;SDS011;6451;42.630;23.382;2023-04-25T10:29:26;3.60;;;2.08;;
12774;SDS011;6451;42.630;23.382;2023-04-25T10:31:53;5.00;;;2.10;;
12774;SDS011;6451;42.630;23.382;2023-04-25T10:34:23;2.80;;;1.65;;
12774;SDS011;6451;42.630;23.382;2023-04-25T10:37:04;1.80;;;1.40;;
12774;SDS011;6451;42.630;23.382;2023-04-25T10:39:33;1.55;;;1.35;;
12774;SDS011;6451;42.630;23.382;2023-04-25T10:42:01;2.03;;;1.50;;
12774;SDS011;6451;42.630;23.382;2023-04-25T10:44:29;2.40;;;1.80;;
12774;SDS011;6451;42.630;23.382;2023-04-25T10:46:58;3.67;;;2.10;;
12774;SDS011;6451;42.630;23.382;2023-04-25T10:49:33;1.90;;;1.70;;
12774;SDS011;6451;42.630;23.382;2023-04-25T10:52:11;1.58;;;1.40;;
12774;SDS011;6451;42.630;23.382;2023-04-25T10:54:44;4.45;;;2.95;;
12774;SDS011;6451;42.630;23.382;2023-04-25T10:57:26;3.65;;;3.25;;
12774;SDS011;6451;42.630;23.382;2023-04-25T11:00:05;4.30;;;3.90;;
12774;SDS011;6451;42.630;23.382;2023-04-25T11:02:45;4.38;;;2.58;;
12774;SDS011;6451;42.630;23.382;2023-04-25T11:05:22;2.95;;;2.60;;
12774;SDS011;6451;42.630;23.382;2023-04-25T11:07:52;3.58;;;2.55;;
12774;SDS011;6451;42.630;23.382;2023-04-25T11:12:59;3.53;;;2.50;;
12774;SDS011;6451;42.630;23.382;2023-04-25T11:15:26;4.57;;;2.53;;
12774;SDS011;6451;42.630;23.382;2023-04-25T11:17:54;4.00;;;2.50;;
12774;SDS011;6451;42.630;23.382;2023-04-25T11:20:21;4.43;;;2.60;;
12774;SDS011;6451;42.630;23.382;2023-04-25T11:22:51;2.95;;;2.03;;
12774;SDS011;6451;42.630;23.382;2023-04-25T11:25:19;3.38;;;2.30;;
12774;SDS011;6451;42.630;23.382;2023-04-25T11:27:49;3.38;;;2.22;;
12774;SDS011;6451;42.630;23.382;2023-04-25T11:30:19;4.75;;;2.63;;
12774;SDS011;6451;42.630;23.382;2023-04-25T11:32:47;3.67;;;1.83;;
12774;SDS011;6451;42.630;23.382;2023-04-25T11:35:14;6.88;;;3.70;;
12774;SDS011;6451;42.630;23.382;2023-04-25T11:37:41;7.05;;;4.30;;
12774;SDS011;6451;42.630;23.382;2023-04-25T11:40:09;6.50;;;3.60;;
12774;SDS011;6451;42.630;23.382;2023-04-25T11:42:37;7.45;;;3.42;;
12774;SDS011;6451;42.630;23.382;2023-04-25T11:45:05;6.72;;;3.00;;
12774;SDS011;6451;42.630;23.382;2023-04-25T11:47:34;5.53;;;2.80;;
12774;SDS011;6451;42.630;23.382;2023-04-25T11:50:01;4.13;;;2.50;;
12774;SDS011;6451;42.630;23.382;2023-04-25T11:52:36;5.05;;;2.92;;
12774;SDS011;6451;42.630;23.382;2023-04-25T11:55:08;4.95;;;3.15;;
12774;SDS011;6451;42.630;23.382;2023-04-25T11:57:37;9.35;;;3.20;;
12774;SDS011;6451;42.630;23.382;2023-04-25T12:00:06;7.90;;;3.20;;
12774;SDS011;6451;42.630;23.382;2023-04-25T12:02:37;4.15;;;2.45;;
12774;SDS011;6451;42.630;23.382;2023-04-25T12:05:07;2.45;;;1.60;;
12774;SDS011;6451;42.630;23.382;2023-04-25T12:07:37;3.70;;;1.60;;
12774;SDS011;6451;42.630;23.382;2023-04-25T12:10:07;2.60;;;1.40;;
12774;SDS011;6451;42.630;23.382;2023-04-25T12:12:35;3.43;;;1.37;;
12774;SDS011;6451;42.630;23.382;2023-04-25T12:15:09;2.57;;;1.20;;
12774;SDS011;6451;42.630;23.382;2023-04-25T12:17:39;2.13;;;1.40;;
12774;SDS011;6451;42.630;23.382;2023-04-25T12:20:07;3.17;;;1.50;;
12774;SDS011;6451;42.630;23.382;2023-04-25T12:22:36;3.88;;;1.60;;
12774;SDS011;6451;42.630;23.382;2023-04-25T12:25:03;1.98;;;1.20;;
12774;SDS011;6451;42.630;23.382;2023-04-25T12:27:31;2.08;;;1.10;;
12774;SDS011;6451;42.630;23.382;2023-04-25T12:29:59;2.08;;;1.50;;
12774;SDS011;6451;42.630;23.382;2023-04-25T12:32:28;2.83;;;1.70;;
12774;SDS011;6451;42.630;23.382;2023-04-25T12:34:57;2.00;;;1.40;;
12774;SDS011;6451;42.630;23.382;2023-04-25T12:37:24;1.95;;;1.60;;
12774;SDS011;6451;42.630;23.382;2023-04-25T12:39:51;2.65;;;1.60;;
12774;SDS011;6451;42.630;23.382;2023-04-25T12:42:18;3.72;;;1.60;;
12774;SDS011;6451;42.630;23.382;2023-04-25T12:44:45;1.65;;;1.40;;
12774;SDS011;6451;42.630;23.382;2023-04-25T12:47:13;1.95;;;1.50;;
12774;SDS011;6451;42.630;23.382;2023-04-25T12:49:41;2.75;;;1.40;;
12774;SDS011;6451;42.630;23.382;2023-04-25T12:52:09;1.58;;;1.20;;
12774;SDS011;6451;42.630;23.382;2023-04-25T12:54:36;1.55;;;1.10;;
12774;SDS011;6451;42.630;23.382;2023-04-25T12:57:03;4.43;;;1.38;;
12774;SDS011;6451;42.630;23.382;2023-04-25T12:59:30;1.90;;;1.20;;
12774;SDS011;6451;42.630;23.382;2023-04-25T13:01:57;1.33;;;1.00;;
12774;SDS011;6451;42.630;23.382;2023-04-25T13:04:24;2.23;;;1.07;;
12774;SDS011;6451;42.630;23.382;2023-04-25T13:06:51;2.20;;;1.07;;
12774;SDS011;6451;42.630;23.382;2023-04-25T13:09:19;3.87;;;1.07;;
12774;SDS011;6451;42.630;23.382;2023-04-25T13:11:46;1.83;;;1.00;;
12774;SDS011;6451;42.630;23.382;2023-04-25T13:14:14;1.47;;;1.20;;
12774;SDS011;6451;42.630;23.382;2023-04-25T13:16:41;1.20;;;1.10;;
12774;SDS011;6451;42.630;23.382;2023-04-25T13:19:08;1.40;;;1.10;;
12774;SDS011;6451;42.630;23.382;2023-04-25T13:21:36;1.93;;;1.03;;
12774;SDS011;6451;42.630;23.382;2023-04-25T13:24:03;1.63;;;1.43;;
12774;SDS011;6451;42.630;23.382;2023-04-25T13:26:32;1.40;;;1.30;;
12774;SDS011;6451;42.630;23.382;2023-04-25T13:28:59;1.60;;;1.50;;
12774;SDS011;6451;42.630;23.382;2023-04-25T13:31:28;1.77;;;1.40;;
12774;SDS011;6451;42.630;23.382;2023-04-25T13:33:56;1.53;;;1.33;;
12774;SDS011;6451;42.630;23.382;2023-04-25T13:36:22;1.57;;;1.47;;
12774;SDS011;6451;42.630;23.382;2023-04-25T13:38:52;2.80;;;1.60;;
12774;SDS011;6451;42.630;23.382;2023-04-25T13:41:18;2.43;;;1.90;;
12774;SDS011;6451;42.630;23.382;2023-04-25T13:43:47;3.70;;;2.47;;
12774;SDS011;6451;42.630;23.382;2023-04-25T13:46:14;3.07;;;1.80;;
12774;SDS011;6451;42.630;23.382;2023-04-25T13:48:42;1.90;;;1.70;;
12774;SDS011;6451;42.630;23.382;2023-04-25T13:51:13;1.60;;;1.50;;
12774;SDS011;6451;42.630;23.382;2023-04-25T13:53:41;2.43;;;1.50;;
12774;SDS011;6451;42.630;23.382;2023-04-25T13:56:08;2.03;;;1.60;;
12774;SDS011;6451;42.630;23.382;2023-04-25T13:58:36;2.27;;;1.70;;
12774;SDS011;6451;42.630;23.382;2023-04-25T14:01:05;1.90;;;1.60;;
12774;SDS011;6451;42.630;23.382;2023-04-25T14:03:32;2.53;;;1.50;;
12774;SDS011;6451;42.630;23.382;2023-04-25T14:05:59;5.43;;;1.80;;
12774;SDS011;6451;42.630;23.382;2023-04-25T14:08:26;3.70;;;2.17;;
12774;SDS011;6451;42.630;23.382;2023-04-25T14:10:53;4.07;;;1.70;;
12774;SDS011;6451;42.630;23.382;2023-04-25T14:13:20;1.50;;;1.40;;
12774;SDS011;6451;42.630;23.382;2023-04-25T14:15:48;1.90;;;1.30;;
12774;SDS011;6451;42.630;23.382;2023-04-25T14:18:18;2.17;;;1.40;;
12774;SDS011;6451;42.630;23.382;2023-04-25T14:20:45;1.60;;;1.40;;
12774;SDS011;6451;42.630;23.382;2023-04-25T14:23:12;1.67;;;1.40;;
12774;SDS011;6451;42.630;23.382;2023-04-25T14:25:39;2.33;;;1.40;;
12774;SDS011;6451;42.630;23.382;2023-04-25T14:28:07;3.90;;;2.10;;
12774;SDS011;6451;42.630;23.382;2023-04-25T14:30:35;3.20;;;1.90;;
12774;SDS011;6451;42.630;23.382;2023-04-25T14:33:02;4.10;;;1.90;;
12774;SDS011;6451;42.630;23.382;2023-04-25T14:35:30;1.83;;;1.63;;
12774;SDS011;6451;42.630;23.382;2023-04-25T14:37:57;3.22;;;1.70;;
12774;SDS011;6451;42.630;23.382;2023-04-25T14:40:25;1.83;;;1.52;;
12774;SDS011;6451;42.630;23.382;2023-04-25T14:42:52;2.08;;;1.48;;
12774;SDS011;6451;42.630;23.382;2023-04-25T14:45:19;1.88;;;1.35;;
12774;SDS011;6451;42.630;23.382;2023-04-25T14:47:46;2.63;;;1.50;;
12774;SDS011;6451;42.630;23.382;2023-04-25T14:50:14;2.90;;;1.60;;
12774;SDS011;6451;42.630;23.382;2023-04-25T14:52:42;3.53;;;1.50;;
12774;SDS011;6451;42.630;23.382;2023-04-25T14:55:10;2.28;;;1.50;;